• Join FlightAware (Why Join?)
  • Login
  • US Flag 
08:46AM EST


 

Airport Tracker/Info


-or-


 

Live Flight TrackerFlight Track Log ✈ N63BD ✈ 25-Sep-2013 ✈ KHYP - KSDL

Flight Track Log - Related Links

Times and Time Zones

All times are in EDT time to prevent confusion due to time zone crossing. See the N63BD flight status page for this flight to view local times or setup timezone preferences in your user account.

Time Position Orientation Groundspeed Altitude Reporting Facility
EDT Latitude Longitude Course Direction KTS MPH feet Rate Location/Type
06:05PM 37.1547 -120.2636 142° Southeast 144 166 6,600  Level Oakland Center
06:06PM 37.1225 -120.2319 142° Southeast 149 171 6,800 120 Climbing Oakland Center
06:07PM 37.0872 -120.1992 143° Southeast 149 171 6,900 120 Climbing Oakland Center
06:08PM 37.0547 -120.1694 144° Southeast 148 170 7,100 180 Climbing Oakland Center
06:09PM 37.0211 -120.1375 143° Southeast 145 167 7,300 180 Climbing Oakland Center
06:10PM 36.9892 -120.1072 143° Southeast 140 161 7,500 180 Climbing Oakland Center
06:11PM 36.9572 -120.0786 144° Southeast 141 162 7,700 180 Climbing Oakland Center
06:12PM 36.9253 -120.0486 143° Southeast 144 166 7,900 180 Climbing Oakland Center
06:13PM 36.8928 -120.0183 143° Southeast 145 167 8,100 180 Climbing Oakland Center
06:14PM 36.8600 -119.9878 143° Southeast 147 169 8,300 180 Climbing Oakland Center
06:15PM 36.8269 -119.9569 143° Southeast 148 170 8,500 180 Climbing Oakland Center
06:16PM 36.7939 -119.9256 143° Southeast 149 171 8,700 180 Climbing Oakland Center
06:17PM 36.7603 -119.8950 144° Southeast 150 173 8,900 180 Climbing Oakland Center
06:18PM 36.7275 -119.8650 144° Southeast 147 169 9,100 180 Climbing Oakland Center
06:19PM 36.6953 -119.8350 143° Southeast 145 167 9,300 240 Climbing Oakland Center
06:20PM 36.6564 -119.8000 144° Southeast 144 166 9,600 240 Climbing Oakland Center
06:21PM 36.6242 -119.7700 143° Southeast 145 167 9,800 180 Climbing Oakland Center
06:22PM 36.5903 -119.7397 144° Southeast 148 170 10,000 180 Climbing Oakland Center
06:23PM 36.5564 -119.7089 144° Southeast 151 174 10,200 180 Climbing Oakland Center
06:24PM 36.5231 -119.6775 143° Southeast 151 174 10,400 180 Climbing Oakland Center
06:25PM 36.4878 -119.6456 144° Southeast 156 180 10,600 60 Climbing Oakland Center
06:26PM 36.4511 -119.6128 144° Southeast 161 185 10,600  Level Oakland Center
06:27PM 36.4147 -119.5794 144° Southeast 163 188 10,600  Level Oakland Center
06:28PM 36.3775 -119.5458 144° Southeast 164 189 10,600  Level Oakland Center
06:29PM 36.3411 -119.5125 144° Southeast 163 188 10,600  Level Oakland Center
06:30PM 36.2969 -119.4725 144° Southeast 164 189 10,600  Level Oakland Center
06:32PM 36.2608 -119.4394 144° Southeast 162 186 10,700 60 Climbing Oakland Center
06:33PM 36.2256 -119.4075 144° Southeast 158 182 10,800 120 Climbing Oakland Center
06:34PM 36.1903 -119.3761 144° Southeast 156 180 11,000 180 Climbing Oakland Center
06:35PM 36.1569 -119.3456 143° Southeast 151 174 11,200 180 Climbing Oakland Center
06:36PM 36.1228 -119.3147 144° Southeast 152 175 11,400 180 Climbing Oakland Center
06:37PM 36.0917 -119.2772 136° Southeast 156 180 11,600 180 Climbing Oakland Center
06:38PM 36.0603 -119.2361 133° Southeast 165 190 11,800 60 Climbing Oakland Center
06:39PM 36.0236 -119.1925 136° Southeast 181 208 11,800 -120 Level Oakland Center
06:40PM 35.9803 -119.1611 150° Southeast 181 208 11,600 -120 Descending Oakland Center
06:41PM 35.9297 -119.1211 147° Southeast 179 206 11,600  Level Oakland Center
06:42PM 35.8875 -119.0892 148° Southeast 179 206 11,600  Level Oakland Center
06:43PM 35.8467 -119.0572 148° Southeast 177 204 11,600  Level Oakland Center
06:44PM 35.8106 -119.0183 139° Southeast 178 205 11,600  Level Oakland Center
06:45PM 35.7881 -118.9572 114° Southeast 191 220 11,600  Level Oakland Center
06:46PM 35.7661 -118.8981 115° Southeast 190 219 11,600  Level Oakland Center
06:47PM 35.7494 -118.8339 108° East 194 223 11,600  Level Oakland Center
06:48PM 35.7342 -118.7714 107° East 194 223 11,600  Level Oakland Center
06:49PM 35.7175 -118.7075 108° East 195 224 11,600  Level Oakland Center
06:50PM 35.7069 -118.6269 99° East 200 230 11,600  Level Oakland Center
06:51PM 35.7158 -118.5594 81° East 200 230 11,600  Level Oakland Center
06:52PM 35.7228 -118.4956 82° East 196 226 11,600  Level Oakland Center
06:53PM 35.7303 -118.4247 83° East 201 231 11,600 -60 Level Oakland Center
06:54PM 35.7375 -118.3447 84° East 191 220 11,500 -60 Descending Los Angeles Center
06:55PM 35.7453 -118.2775 82° East 195 224 11,500  Level Los Angeles Center
06:56PM 35.7567 -118.1886 81° East 215 247 11,500  Level Los Angeles Center
06:57PM 35.7636 -118.1144 83° East 218 251 11,500  Level Los Angeles Center
06:58PM 35.7711 -118.0444 82° East 210 242 11,500 -60 Level Los Angeles Center
07:00PM 35.7814 -117.9731 80° East 211 243 11,400  Descending Los Angeles Center
07:01PM 35.7911 -117.9058 80° East 203 234 11,500  Climbing Los Angeles Center
07:02PM 35.7961 -117.8289 85° East 216 249 11,500  Level Los Angeles Center
07:03PM 35.8083 -117.7544 79° East 204 235 11,500  Level Los Angeles Center
07:04PM 35.8200 -117.6900 77° East 194 223 11,500  Level Los Angeles Center
07:05PM 35.8278 -117.6183 82° East 200 230 11,500  Level Los Angeles Center
07:06PM 35.8347 -117.5572 82° East 195 224 11,500  Level Los Angeles Center
07:07PM 35.8331 -117.4914 92° East 191 220 11,500  Level Los Angeles Center
07:08PM 35.8333 -117.4211 90° East 198 228 11,500  Level Los Angeles Center
07:09PM 35.8347 -117.3425 89° East 196 226 11,500  Level Los Angeles Center
07:10PM 35.8292 -117.2717 96° East 199 229 11,500 -60 Level Los Angeles Center
07:11PM 35.8228 -117.1997 96° East 205 236 11,400 -60 Descending Los Angeles Center
07:12PM 35.8175 -117.1347 96° East 201 231 11,400 -60 Level Los Angeles Center
07:13PM 35.8083 -117.0611 99° East 205 236 11,300 -540 Descending Los Angeles Center
07:14PM 35.8003 -116.9953 99° East 204 235 10,400 -780 Descending Los Angeles Center
07:15PM 35.7969 -116.9353 94° East 193 222 9,800  Descending Los Angeles Center
07:16PM 35.7844 -116.8647 102° East 188 216 10,400 420 Climbing Los Angeles Center
07:17PM 35.7592 -116.8047 117° Southeast 185 213 10,700 60 Climbing Los Angeles Center
07:18PM 35.7489 -116.7425 101° East 192 221 10,600 -720 Descending Los Angeles Center
07:19PM 35.7147 -116.7014 136° Southeast 179 206 9,300 -1,140 Descending Los Angeles Center
07:20PM 35.6792 -116.6511 131° Southeast 179 206 8,300 -60 Descending Los Angeles Center
07:22PM 35.6580 -116.5837 111° Southeast  Level FlightAware Approximate
07:29PM 35.5154 -116.2432 117° Southeast  Level FlightAware Approximate
07:30PM 35.4951 -116.1946 117° Southeast  Level FlightAware Approximate
07:31PM 35.4749 -116.1460 117° Southeast  Level FlightAware Approximate
07:32PM 35.4546 -116.0974 117° Southeast  Level FlightAware Approximate
07:33PM 35.4342 -116.0488 117° Southeast  Level FlightAware Approximate
07:34PM 35.4139 -116.0002 117° Southeast  Level FlightAware Approximate
07:35PM 35.3935 -115.9517 117° Southeast  Level FlightAware Approximate
07:36PM 35.3732 -115.9032 117° Southeast  Level FlightAware Approximate
07:37PM 35.3528 -115.8547 117° Southeast  Level FlightAware Approximate
07:38PM 35.3323 -115.8062 117° Southeast  Level FlightAware Approximate
07:39PM 35.3119 -115.7578 117° Southeast  Level FlightAware Approximate
07:40PM 35.2914 -115.7094 117° Southeast  Level FlightAware Approximate
07:41PM 35.2710 -115.6610 117° Southeast  Level FlightAware Approximate
07:42PM 35.2505 -115.6126 117° Southeast  Level FlightAware Approximate
07:43PM 35.2300 -115.5643 117° Southeast  Level FlightAware Approximate
07:44PM 35.2094 -115.5160 117° Southeast  Level FlightAware Approximate
07:45PM 35.1889 -115.4677 117° Southeast  Level FlightAware Approximate
07:46PM 35.1683 -115.4194 118° Southeast  Level FlightAware Approximate
07:47PM 35.1477 -115.3712 118° Southeast  Level FlightAware Approximate
07:48PM 35.1271 -115.3230 118° Southeast  Level FlightAware Approximate
07:49PM 35.1065 -115.2748 118° Southeast  Level FlightAware Approximate
07:50PM 35.0858 -115.2266 118° Southeast  Level FlightAware Approximate
07:51PM 35.0652 -115.1785 118° Southeast  Level FlightAware Approximate
07:52PM 35.0445 -115.1304 118° Southeast  Level FlightAware Approximate
07:53PM 35.0238 -115.0823 118° Southeast  Level FlightAware Approximate
07:54PM 35.0031 -115.0342 118° Southeast  Level FlightAware Approximate
07:55PM 34.9823 -114.9862 118° Southeast  Level FlightAware Approximate
07:56PM 34.9616 -114.9382 118° Southeast  Level FlightAware Approximate
07:57PM 34.9408 -114.8902 118° Southeast  Level FlightAware Approximate
07:58PM 34.9200 -114.8422 118° Southeast  Level FlightAware Approximate
07:59PM 34.8992 -114.7943 118° Southeast  Level FlightAware Approximate
08:00PM 34.8783 -114.7463 118° Southeast  Level FlightAware Approximate
08:01PM 34.8575 -114.6984 118° Southeast  Level FlightAware Approximate
08:02PM 34.8366 -114.6506 118° Southeast  Level FlightAware Approximate
08:03PM 34.8157 -114.6027 118° Southeast  Level FlightAware Approximate
08:04PM 34.7948 -114.5549 118° Southeast  Level FlightAware Approximate
08:05PM 34.7739 -114.5071 118° Southeast  Level FlightAware Approximate
08:06PM 34.7529 -114.4593 118° Southeast  Level FlightAware Approximate
08:07PM 34.7319 -114.4116 118° Southeast  Level FlightAware Approximate
08:08PM 34.7109 -114.3638 118° Southeast  Level FlightAware Approximate
08:09PM 34.6899 -114.3161 118° Southeast  Level FlightAware Approximate
08:10PM 34.6689 -114.2685 118° Southeast  Level FlightAware Approximate
08:11PM 34.6479 -114.2208 118° Southeast  Level FlightAware Approximate
08:12PM 34.6268 -114.1732 118° Southeast  Level FlightAware Approximate
08:13PM 34.6058 -114.1256 118° Southeast  Level FlightAware Approximate
08:14PM 34.5846 -114.0780 118° Southeast  Level FlightAware Approximate
08:15PM 34.5635 -114.0304 118° Southeast  Level FlightAware Approximate
08:16PM 34.5426 -113.9827 117° Southeast  Level FlightAware Approximate
08:17PM 34.5221 -113.9348 117° Southeast  Level FlightAware Approximate
08:18PM 34.5016 -113.8869 117° Southeast  Level FlightAware Approximate
08:19PM 34.4810 -113.8391 117° Southeast  Level FlightAware Approximate
08:20PM 34.4605 -113.7912 118° Southeast  Level FlightAware Approximate
08:21PM 34.4399 -113.7434 118° Southeast  Level FlightAware Approximate
08:22PM 34.4193 -113.6956 118° Southeast  Level FlightAware Approximate
08:23PM 34.3986 -113.6478 118° Southeast  Level FlightAware Approximate
08:24PM 34.3780 -113.6000 118° Southeast  Level FlightAware Approximate
08:24PM 35.7503 -115.4683 118° Southeast 137 158 8,100  Level Los Angeles Center
08:25PM 34.3573 -113.5523 118° Southeast  Level FlightAware Approximate
08:25PM 35.7306 -115.4272 121° Southeast 137 158 8,300  Level Los Angeles Center
08:26PM 34.3367 -113.5046 118° Southeast  Level FlightAware Approximate
08:26PM 35.7100 -115.3917 125° Southeast 130 150 8,500  Level Los Angeles Center
08:26PM 35.7058 -115.3833 122° Southeast 134 154 8,500 180 Level Los Angeles Center
08:27PM 34.3160 -113.4569 118° Southeast  Level FlightAware Approximate
08:27PM 35.6783 -115.3400 128° Southeast 146 168 8,800  Level Los Angeles Center
08:28PM 34.2952 -113.4092 118° Southeast  Level FlightAware Approximate
08:28PM 35.6511 -115.2894 124° Southeast 166 191 9,000  Level Los Angeles Center
08:29PM 34.2745 -113.3616 118° Southeast  Level FlightAware Approximate
08:29PM 35.6189 -115.2300 124° Southeast 173 199 9,200  Level Los Angeles Center
08:30PM 35.5908 -115.1806 125° Southeast 160 184 9,400 120 Climbing Los Angeles Center
08:31PM 35.5689 -115.1422 125° Southeast 149 171 9,600 180 Climbing Los Angeles Center
08:32PM 35.5486 -115.1058 124° Southeast 138 159 9,800 60 Climbing Los Angeles Center
08:33PM 35.5294 -115.0542 114° Southeast 149 171 9,800 -60 Level Los Angeles Center
08:34PM 35.5028 -115.0050 124° Southeast 166 191 9,700 -60 Descending Los Angeles Center
08:35PM 35.4717 -114.9506 125° Southeast 167 192 9,700 120 Level Los Angeles Center
08:36PM 35.4481 -114.9083 124° Southeast 159 183 10,000 120 Climbing Los Angeles Center
08:37PM 35.4239 -114.8653 125° Southeast 154 177 10,000  Level Los Angeles Center
08:38PM 35.3969 -114.8217 127° Southeast 159 183 10,000  Level Los Angeles Center
08:39PM 35.3706 -114.7778 126° Southeast 159 183 10,000 -60 Level Los Angeles Center
08:41PM 35.3469 -114.7372 126° Southeast 151 174 9,900  Descending Los Angeles Center
08:42PM 35.3175 -114.6864 125° Southeast 151 174 10,000 -180 Climbing Los Angeles Center
08:43PM 35.2903 -114.6403 126° Southeast 164 189 9,600 -240 Descending Los Angeles Center
08:44PM 35.2661 -114.5972 124° Southeast 157 181 9,600  Level Los Angeles Center
08:45PM 35.2417 -114.5572 127° Southeast 149 171 9,600  Level Los Angeles Center
08:46PM 35.2181 -114.5156 125° Southeast 149 171 9,600  Level Los Angeles Center
08:47PM 35.1939 -114.4747 126° Southeast 149 171 9,600  Level Los Angeles Center
08:48PM 35.1653 -114.4247 125° Southeast 150 173 9,600  Level Los Angeles Center
08:49PM 35.1389 -114.3828 128° Southeast 154 177 9,600  Level Los Angeles Center
08:50PM 35.1139 -114.3397 125° Southeast 155 178 9,600  Level Los Angeles Center
08:51PM 35.0903 -114.2994 126° Southeast 149 171 9,600  Level Los Angeles Center
08:52PM 35.0667 -114.2581 125° Southeast 149 171 9,600  Level Los Angeles Center
08:53PM 35.0419 -114.2178 127° Southeast 148 170 9,600  Level Los Angeles Center
08:54PM 35.0128 -114.1692 126° Southeast 149 171 9,600  Level Los Angeles Center
08:55PM 34.9881 -114.1286 127° Southeast 150 173 9,600  Level Los Angeles Center
08:56PM 34.9639 -114.0867 125° Southeast 151 174 9,600  Level Los Angeles Center
08:57PM 34.9386 -114.0475 128° Southeast 148 170 9,600  Level Los Angeles Center
08:58PM 34.9158 -114.0058 124° Southeast 147 169 9,600  Level Los Angeles Center
08:59PM 34.8908 -113.9642 126° Southeast 151 174 9,600  Level Los Angeles Center
09:00PM 34.8642 -113.9214 127° Southeast 153 176 9,600  Level Los Angeles Center
09:01PM 34.8397 -113.8792 125° Southeast 153 176 9,600  Level Los Angeles Center
09:02PM 34.8158 -113.8392 126° Southeast 148 170 9,700  Climbing Albuquerque Center
09:03PM 34.7919 -113.8011 127° Southeast 144 166 9,700  Level Albuquerque Center
09:04PM 34.7692 -113.7614 125° Southeast 144 166 9,700  Level Albuquerque Center
09:05PM 34.7439 -113.7200 127° Southeast 150 173 9,700  Level Albuquerque Center
09:06PM 34.7183 -113.6775 126° Southeast 153 176 9,700  Level Albuquerque Center
09:07PM 34.6881 -113.6275 126° Southeast 155 178 9,700  Level Albuquerque Center
09:08PM 34.6642 -113.5872 126° Southeast 153 176 9,700  Level Albuquerque Center
09:09PM 34.6403 -113.5494 128° Southeast 149 171 9,700  Level Albuquerque Center
09:10PM 34.6153 -113.5108 128° Southeast 144 166 9,700  Level Albuquerque Center
09:11PM 34.5939 -113.4719 124° Southeast 143 165 9,700  Level Albuquerque Center
09:12PM 34.5711 -113.4353 127° Southeast 139 160 9,700  Level Albuquerque Center
09:13PM 34.5439 -113.3906 126° Southeast 138 159 9,700  Level Albuquerque Center
09:14PM 34.5203 -113.3522 127° Southeast 140 161 9,700  Level Albuquerque Center
09:15PM 34.4969 -113.3125 125° Southeast 143 165 9,700  Level Albuquerque Center
09:16PM 34.4750 -113.2769 127° Southeast 140 161 9,700  Level Albuquerque Center
09:17PM 34.4533 -113.2414 126° Southeast 136 157 9,700  Level Albuquerque Center
09:18PM 34.4278 -113.2017 128° Southeast 137 158 9,700  Level Albuquerque Center
09:20PM 34.4028 -113.1650 130° Southeast 140 161 9,700  Level Albuquerque Center
09:21PM 34.3772 -113.1156 122° Southeast 153 176 9,700  Level Albuquerque Center
09:22PM 34.3511 -113.0753 128° Southeast 153 176 9,700  Level Albuquerque Center
09:23PM 34.3269 -113.0350 126° Southeast 149 171 9,700  Level Albuquerque Center
09:24PM 34.2969 -112.9858 126° Southeast 150 173 9,700  Level Albuquerque Center
09:25PM 34.2719 -112.9456 127° Southeast 149 171 9,700 -120 Level Albuquerque Center
09:25PM 34.2519 -112.9164 130° Southeast 150 173 9,500  Descending Albuquerque Center
09:26PM 34.2472 -112.9047 116° Southeast 149 171 9,700  Climbing Albuquerque Center
09:26PM 34.2333 -112.8825 127° Southeast 150 173 9,500  Descending Albuquerque Center
09:27PM 34.2219 -112.8650 128° Southeast 150 173 9,700  Climbing Albuquerque Center
09:27PM 34.2103 -112.8472 128° Southeast 151 174 9,500  Descending Albuquerque Center
09:28PM 34.1964 -112.8244 126° Southeast 151 174 9,700 -120 Climbing Albuquerque Center
09:28PM 34.1839 -112.8053 128° Southeast 152 175 9,400 -420 Descending Albuquerque Center
09:29PM 34.1711 -112.7831 125° Southeast 151 174 9,300 -240 Descending Albuquerque Center
09:29PM 34.1569 -112.7606 127° Southeast 158 182 9,200 -300 Descending Albuquerque Center
09:30PM 34.1450 -112.7408 126° Southeast 155 178 9,000 -300 Descending Albuquerque Center
09:30PM 34.1328 -112.7206 126° Southeast 156 180 8,900 -300 Descending Albuquerque Center
09:31PM 34.1133 -112.6908 128° Southeast 157 181 8,700 -300 Descending Albuquerque Center
09:31PM 34.1042 -112.6792 133° Southeast 156 180 8,600 -240 Descending Albuquerque Center
09:32PM 34.0875 -112.6486 123° Southeast 156 180 8,500 -240 Descending Albuquerque Center
09:32PM 34.0797 -112.6364 128° Southeast 153 176 8,400 -300 Descending Albuquerque Center
09:33PM 34.0633 -112.6092 126° Southeast 149 171 8,200 -300 Descending Albuquerque Center
09:33PM 34.0533 -112.5944 129° Southeast 148 170 8,100 -240 Descending Albuquerque Center
09:34PM 34.0386 -112.5694 125° Southeast 147 169 8,000 -240 Descending Albuquerque Center
09:34PM 34.0297 -112.5569 131° Southeast 147 169 7,900 -300 Descending Albuquerque Center
09:35PM 34.0139 -112.5308 126° Southeast 146 168 7,700 -240 Descending Albuquerque Center
09:36PM 33.9903 -112.4922 126° Southeast 144 166 7,500 -300 Descending Albuquerque Center
09:37PM 33.9658 -112.4542 128° Southeast 144 166 7,200 -300 Descending Albuquerque Center
09:38PM 33.9425 -112.4139 125° Southeast 146 168 7,000 -300 Descending Albuquerque Center
09:39PM 33.9183 -112.3600 118° Southeast 153 176 6,700 -300 Descending Albuquerque Center
09:40PM 33.8992 -112.3147 117° Southeast 152 175 6,400 -360 Descending Albuquerque Center
09:41PM 33.8767 -112.2719 122° Southeast 152 175 6,000 -420 Descending Albuquerque Center
09:42PM 33.8558 -112.2261 119° Southeast 156 180 5,600 -480 Descending Albuquerque Center
09:43PM 33.8347 -112.1803 119° Southeast 158 182 5,100 -480 Descending Albuquerque Center
09:44PM 33.8144 -112.1339 118° Southeast 158 182 4,700 -480 Descending Albuquerque Center
09:45PM 33.7936 -112.0869 118° Southeast 160 184 4,200 -540 Descending Albuquerque Center
09:46PM 33.7683 -112.0300 118° Southeast 163 188 3,700 -420 Descending Albuquerque Center
09:47PM 33.7461 -111.9875 122° Southeast 153 176 3,400 -240 Descending Albuquerque Center
09:48PM 33.7247 -111.9467 122° Southeast 147 169 3,300 -120 Descending Albuquerque Center
09:49PM 33.7058 -111.9111 123° Southeast 130 150 3,200 -240 Descending Albuquerque Center
09:50PM 33.6850 -111.8836 132° Southeast 120 138 2,900 -360 Descending Albuquerque Center
09:51PM 33.6633 -111.8689 151° Southeast 106 122 2,500 -540 Descending Albuquerque Center
09:52PM 33.6431 -111.8881 218° Southwest 97 112 1,900 -540 Descending Albuquerque Center
09:53PM 33.6267 -111.9072 224° Southwest 90 104 1,500 -420 Descending Albuquerque Center
09:55PM 33.6167 -111.9000 126° Southeast  Level FlightAware Approximate
10:02PM 33.6229 -111.9105 126° Southeast  Level Estimated
10:03PM 33.6229 -111.9105 126° Southeast  Level Estimated
10:04PM 33.6229 -111.9105 126° Southeast  Level Estimated
10:05PM 33.6229 -111.9105 126° Southeast  Level Estimated
10:06PM 33.6229 -111.9105 126° Southeast  Level Estimated
10:07PM 33.6229 -111.9105 126° Southeast  Level Estimated
10:08PM 33.6229 -111.9105 126° Southeast  Level Estimated